Friday, October 19, 2018, 12:04 PM GMT
Back to Local

CYTZ, Toronto Island Airport Automated Reporting Station

Location: , , Canada Lat: 43.633
Local Time: 12:04 PM GMT (12:04 GMT) Lon: -79.4
Time Zone: GMT Elev: 252 ft

Show me the last for .
Show Coded

Time T Td Feel RH Dir Speed Gust Alt SLP Vis Weather Sky Remarks
2018-10-19 11:00 43 37 37 81 250° 10 - 30.12 30.14 9 CLR None
2018-10-19 10:00 43 37 35 81 250° 15 - 30.14 30.15 9 CLR None
2018-10-19 09:00 43 37 36 81 240° 13 - 30.15 30.16 9 CLR None
2018-10-19 08:00 43 36 36 75 240° 13 - 30.16 30.17 9 CLR None
2018-10-19 07:00 43 34 36 70 230° 13 - 30.18 30.19 9 CLR None
2018-10-19 06:00 43 34 36 70 220° 13 - 30.18 30.19 9 CLR None
2018-10-19 05:00 41 34 34 75 220° 13 - 30.19 30.20 9 CLR None
2018-10-19 04:00 43 32 35 65 230° 16 - 30.20 30.21 9 CLR None
2018-10-19 03:00 41 34 34 75 220° 13 - 30.23 30.24 9 CLR None
2018-10-19 02:00 41 34 34 75 220° 12 - 30.26 30.27 9 CLR None
2018-10-19 01:00 43 34 35 70 220° 15 - 30.28 30.29 9 CLR None
2018-10-19 00:00 43 34 37 70 240° 9 - 30.29 30.30 9 CLR None
2018-10-18 23:00 45 32 37 61 250° 12 17 30.31 30.32 9 CLR None
2018-10-18 22:00 46 32 40 56 250° 16 - 30.31 30.32 9 CLR None
2018-10-18 21:00 46 34 41 61 240° 10 - 30.33 30.34 9 CLR None
2018-10-18 20:00 46 32 39 56 230° 13 18 30.35 30.36 9 BKN046 None
2018-10-18 19:00 45 28 36 52 250° 17 23 30.38 30.39 9 BKN048 None
2018-10-18 18:00 45 28 38 52 260° 15 - 30.41 30.42 9 BKN046 None
2018-10-18 17:00 43 27 36 52 280° 14 - 30.43 30.44 9 OVC044 None
2018-10-18 16:00 41 28 35 60 250° 9 - 30.45 30.47 9 OVC046 None
2018-10-18 15:00 39 28 34 64 220° 7 - 30.46 30.47 9 OVC048 None
2018-10-18 14:00 37 30 33 74 250° 6 - 30.46 30.47 9 OVC050 None
2018-10-18 13:00 37 30 35 74 280° 3 - 30.45 30.46 9 FEW055 None

Support USWX by starting your Amazon purchase here.